Time;durP1;ratioP1;P1;durP2;ratioP2;P2;SDS_P1;SDS_P2;PMS_P1;PMS_P2;Temp;Humidity;BMP_temperature;BMP_pressure;BME280_temperature;BME280_humidity;BME280_pressure;Samples;Min_cycle;Max_cycle;Signal;HPM_P1;HPM_P2
2022/01/16 00:04:06;;;;;;;0.40;0.40;;;-2.70;99.90;;;;;;5228787;28;20039;-72
2022/01/16 00:04:59;;;;;;;0.60;0.60;;;-2.70;99.90;;;;;;5255687;28;20138;-72
2022/01/16 00:07:36;;;;;;;0.37;0.37;;;-2.70;99.90;;;;;;5250906;28;20385;-72
2022/01/16 00:10:17;;;;;;;0.50;0.50;;;-2.70;99.90;;;;;;5264577;28;20055;-72
2022/01/16 00:12:49;;;;;;;1.43;1.40;;;-2.60;99.90;;;;;;5243089;28;20040;-72
2022/01/16 00:15:23;;;;;;;0.70;0.70;;;-2.60;99.90;;;;;;5243955;28;20393;-72
2022/01/16 00:20:28;;;;;;;0.60;0.60;;;-2.60;99.90;;;;;;5241677;28;20038;-72
2022/01/16 00:22:59;;;;;;;0.70;0.70;;;-2.70;99.90;;;;;;5261442;28;20596;-72
2022/01/16 00:25:30;;;;;;;0.47;0.47;;;-2.70;99.90;;;;;;5243690;28;20035;-72
2022/01/16 00:28:02;;;;;;;0.40;0.40;;;-2.70;99.90;;;;;;5226725;28;20047;-71
2022/01/16 00:30:32;;;;;;;0.60;0.60;;;-2.70;99.90;;;;;;5247516;28;20058;-73
2022/01/16 00:33:05;;;;;;;0.50;0.50;;;-2.70;99.90;;;;;;5261956;28;20044;-72
2022/01/16 00:35:35;;;;;;;0.50;0.50;;;-2.70;99.90;;;;;;5243862;28;20034;-72
2022/01/16 00:38:12;;;;;;;0.40;0.40;;;-2.80;99.90;;;;;;5262436;28;20020;-72
2022/01/16 00:40:50;;;;;;;1.33;1.23;;;-2.70;99.90;;;;;;5236809;28;20107;-71
2022/01/16 00:43:26;;;;;;;0.40;0.40;;;-2.70;99.90;;;;;;5254569;28;20551;-72
2022/01/16 00:45:58;;;;;;;0.43;0.43;;;-2.70;99.90;;;;;;5275528;28;20394;-72
2022/01/16 00:48:31;;;;;;;0.50;0.50;;;-2.70;99.90;;;;;;5234007;28;20455;-71
2022/01/16 00:51:05;;;;;;;0.60;0.60;;;-2.70;99.90;;;;;;5283502;27;20095;-71
2022/01/16 00:53:39;;;;;;;0.87;0.87;;;-2.80;99.90;;;;;;5244717;28;20039;-71
2022/01/16 00:56:15;;;;;;;0.60;0.60;;;-2.80;99.90;;;;;;5242899;28;20390;-72
2022/01/16 00:58:49;;;;;;;0.50;0.50;;;-2.80;99.90;;;;;;5246250;28;20066;-71
2022/01/16 01:01:20;;;;;;;0.52;0.52;;;-2.80;99.90;;;;;;5227463;28;20070;-72
2022/01/16 01:03:57;;;;;;;0.40;0.40;;;-2.80;99.90;;;;;;5260085;28;20055;-72
2022/01/16 01:06:30;;;;;;;0.40;0.40;;;-2.70;99.90;;;;;;5258697;28;20537;-74
2022/01/16 01:09:01;;;;;;;0.40;0.40;;;-2.70;99.90;;;;;;5243177;28;20032;-71
2022/01/16 01:11:37;;;;;;;0.50;0.50;;;-2.70;99.90;;;;;;5268512;28;20944;-72
2022/01/16 01:14:16;;;;;;;0.40;0.40;;;-2.70;99.90;;;;;;5275260;28;20474;-72
2022/01/16 01:17:01;;;;;;;0.60;0.60;;;-2.80;99.90;;;;;;5243460;28;20077;-72
2022/01/16 01:19:35;;;;;;;0.40;0.40;;;-2.80;99.90;;;;;;5245019;28;20043;-73
2022/01/16 01:22:08;;;;;;;;;;;-2.80;99.90;;;;;;5227483;28;20032;-72
2022/01/16 01:24:44;;;;;;;0.53;0.53;;;-2.90;99.90;;;;;;5258991;28;19919;-72
2022/01/16 01:27:23;;;;;;;0.40;0.40;;;-2.80;99.90;;;;;;5259396;28;20031;-72
2022/01/16 01:30:06;;;;;;;0.50;0.50;;;-2.90;99.90;;;;;;5259804;28;20107;-72
2022/01/16 01:32:38;;;;;;;0.40;0.40;;;-3.00;99.90;;;;;;5260960;28;20039;-72
2022/01/16 01:35:19;;;;;;;0.47;0.47;;;-2.90;99.90;;;;;;5242337;28;20093;-72
2022/01/16 01:37:58;;;;;;;0.60;0.60;;;-2.90;99.90;;;;;;5242423;28;20055;-72
2022/01/16 01:40:29;;;;;;;0.50;0.50;;;-3.00;99.90;;;;;;5245676;28;20039;-72
2022/01/16 01:51:46;;;;;;;0.70;0.70;;;-3.10;99.90;;;;;;5211865;28;20393;-72
2022/01/16 01:54:20;;;;;;;0.80;0.80;;;-3.10;99.90;;;;;;5199101;28;20104;-71
2022/01/16 01:56:52;;;;;;;0.65;0.65;;;-3.10;99.90;;;;;;5219193;28;20110;-72
2022/01/16 01:59:26;;;;;;;0.60;0.60;;;-3.10;99.90;;;;;;5215997;28;20507;-72
2022/01/16 02:01:57;;;;;;;0.60;0.60;;;-3.10;99.90;;;;;;5212964;28;20090;-72
2022/01/16 02:04:31;;;;;;;0.50;0.50;;;-3.20;99.90;;;;;;5209209;28;20523;-72
2022/01/16 02:07:05;;;;;;;0.50;0.50;;;-3.10;99.90;;;;;;5191993;28;20048;-72
2022/01/16 02:09:39;;;;;;;;;;;-3.10;99.90;;;;;;5216785;28;20104;-71
2022/01/16 02:12:10;;;;;;;0.40;0.40;;;-3.10;99.90;;;;;;5216154;28;19913;-72
2022/01/16 02:15:04;;;;;;;0.40;0.40;;;-3.20;99.90;;;;;;5216352;28;20071;-72
2022/01/16 02:34:34;;;;;;;0.63;0.63;;;-3.10;99.90;;;;;;5260105;28;20040;-72
2022/01/16 02:37:13;;;;;;;1.83;1.60;;;-3.20;99.90;;;;;;5275041;28;20023;-73
2022/01/16 02:39:50;;;;;;;0.60;0.60;;;-3.30;99.90;;;;;;5271422;28;20038;-72
2022/01/16 02:42:35;;;;;;;0.40;0.40;;;-3.30;99.90;;;;;;5241764;28;20395;-72
2022/01/16 02:45:17;;;;;;;0.40;0.40;;;-3.40;99.90;;;;;;5260231;28;20038;-72
2022/01/16 02:47:53;;;;;;;0.40;0.40;;;-3.40;99.90;;;;;;5253373;28;20040;-73
2022/01/16 02:50:29;;;;;;;0.50;0.50;;;-3.50;99.90;;;;;;5249970;28;20024;-72
2022/01/16 02:53:12;;;;;;;0.50;0.50;;;-3.50;99.90;;;;;;5242279;28;20028;-71
2022/01/16 02:55:45;;;;;;;0.60;0.60;;;-3.60;99.90;;;;;;5248897;28;20484;-72
2022/01/16 02:58:23;;;;;;;0.80;0.80;;;-3.60;99.90;;;;;;5242368;28;20074;-72
2022/01/16 03:00:57;;;;;;;0.40;0.40;;;-3.70;99.90;;;;;;5260647;28;20232;-72
2022/01/16 03:03:32;;;;;;;1.33;1.23;;;-3.70;99.90;;;;;;5251448;28;20396;-71
2022/01/16 03:06:09;;;;;;;0.50;0.50;;;-3.70;99.90;;;;;;5247675;28;20435;-72
2022/01/16 03:08:41;;;;;;;0.60;0.60;;;-3.70;99.90;;;;;;5259856;28;20458;-71
2022/01/16 03:11:39;;;;;;;0.57;0.57;;;-3.70;99.90;;;;;;5247735;28;20284;-74
2022/01/16 03:14:13;;;;;;;0.50;0.50;;;-3.70;99.90;;;;;;5258003;28;20566;-72
2022/01/16 03:16:53;;;;;;;0.60;0.60;;;-3.60;99.90;;;;;;5263691;28;20036;-72
2022/01/16 03:22:16;;;;;;;1.80;1.60;;;-3.70;99.90;;;;;;5263548;28;20569;-72
2022/01/16 03:24:47;;;;;;;0.60;0.60;;;-3.70;99.90;;;;;;5262689;28;20031;-72
2022/01/16 03:27:23;;;;;;;0.50;0.50;;;-3.70;99.90;;;;;;5281636;28;20036;-72
2022/01/16 03:30:00;;;;;;;0.67;0.67;;;-3.70;99.90;;;;;;5273360;28;20027;-72
2022/01/16 03:32:31;;;;;;;0.50;0.50;;;-3.80;99.90;;;;;;5253298;28;20055;-72
2022/01/16 03:35:05;;;;;;;0.60;0.60;;;-3.80;99.90;;;;;;5262531;28;20045;-72
2022/01/16 03:37:40;;;;;;;0.43;0.43;;;-3.70;99.90;;;;;;5207656;28;20349;-72
2022/01/16 03:40:17;;;;;;;0.40;0.40;;;-3.80;99.90;;;;;;5262326;28;20521;-71
2022/01/16 03:42:49;;;;;;;3.50;2.30;;;-3.70;99.90;;;;;;5255327;28;20042;-72
2022/01/16 03:45:20;;;;;;;0.47;0.47;;;-3.70;99.90;;;;;;5244065;28;20085;-73
2022/01/16 03:47:51;;;;;;;0.90;0.90;;;-3.70;99.90;;;;;;5234524;28;20028;-72
2022/01/16 03:50:25;;;;;;;0.60;0.60;;;-3.60;99.90;;;;;;5245453;28;20055;-72
2022/01/16 03:53:00;;;;;;;0.50;0.50;;;-3.60;99.90;;;;;;5263348;28;20390;-72
2022/01/16 03:55:35;;;;;;;0.40;0.40;;;-3.50;99.90;;;;;;5270051;28;20055;-72
2022/01/16 03:58:08;;;;;;;0.50;0.50;;;-3.50;99.90;;;;;;5245606;28;20291;-72
2022/01/16 04:00:44;;;;;;;0.60;0.60;;;-3.50;99.90;;;;;;5251722;28;20073;-71
2022/01/16 04:03:17;;;;;;;0.40;0.40;;;-3.60;99.90;;;;;;5260982;28;20046;-71
2022/01/16 04:05:53;;;;;;;0.43;0.43;;;-3.60;99.90;;;;;;5251726;28;20052;-72
2022/01/16 04:08:23;;;;;;;0.67;0.67;;;-3.70;99.90;;;;;;5237408;28;20044;-72
2022/01/16 04:10:54;;;;;;;0.40;0.40;;;-3.70;99.90;;;;;;5278917;28;20297;-72
2022/01/16 04:13:33;;;;;;;0.60;0.60;;;-3.80;99.90;;;;;;5263141;28;20058;-72
2022/01/16 04:16:07;;;;;;;2.87;1.43;;;-3.80;99.90;;;;;;5254112;28;20043;-72
2022/01/16 04:18:40;;;;;;;0.50;0.50;;;-3.80;99.90;;;;;;5243842;28;20043;-72
2022/01/16 04:21:15;;;;;;;1.13;1.13;;;-3.80;99.90;;;;;;5261476;28;20040;-71
2022/01/16 04:23:50;;;;;;;0.43;0.43;;;-3.80;99.90;;;;;;5263017;28;20102;-71
2022/01/16 04:26:25;;;;;;;1.10;1.10;;;-3.60;99.90;;;;;;5251647;28;20099;-72
2022/01/16 04:28:56;;;;;;;1.17;1.17;;;-3.60;99.90;;;;;;5262031;28;20497;-72
2022/01/16 04:31:31;;;;;;;0.40;0.40;;;-3.50;99.90;;;;;;5261436;28;20032;-72
2022/01/16 04:34:07;;;;;;;0.50;0.50;;;-3.50;99.90;;;;;;5278746;28;20038;-72
2022/01/16 04:36:38;;;;;;;0.50;0.50;;;-3.50;99.90;;;;;;5261852;28;20074;-72
2022/01/16 04:39:19;;;;;;;0.50;0.50;;;-3.70;99.90;;;;;;5278587;28;20114;-72
2022/01/16 04:44:41;;;;;;;0.60;0.60;;;-3.70;99.90;;;;;;5263161;28;20039;-72
2022/01/16 04:47:16;;;;;;;2.77;2.57;;;-3.70;99.90;;;;;;5243678;28;20024;-72
2022/01/16 04:49:49;;;;;;;0.50;0.50;;;-3.80;99.90;;;;;;5262706;28;20098;-72
2022/01/16 04:52:24;;;;;;;1.63;1.53;;;-3.80;99.90;;;;;;5246271;28;20038;-72
2022/01/16 04:54:57;;;;;;;0.50;0.50;;;-3.80;99.90;;;;;;5244649;28;20066;-72
2022/01/16 04:57:31;;;;;;;0.50;0.50;;;-3.80;99.90;;;;;;5244777;28;20036;-72
2022/01/16 05:00:09;;;;;;;0.45;0.45;;;-3.80;99.90;;;;;;5243879;28;20051;-72
2022/01/16 05:02:45;;;;;;;0.50;0.50;;;-3.70;99.90;;;;;;5236136;28;20044;-72
2022/01/16 05:05:20;;;;;;;0.93;0.93;;;-3.70;99.90;;;;;;5234699;28;20522;-71
2022/01/16 05:07:51;;;;;;;0.70;0.70;;;-3.60;99.90;;;;;;5253847;28;20099;-72
2022/01/16 05:10:22;;;;;;;0.60;0.60;;;-3.70;99.90;;;;;;5262254;28;20055;-72
2022/01/16 05:13:14;;;;;;;0.60;0.60;;;-3.70;99.90;;;;;;5244166;28;20035;-72
2022/01/16 05:18:42;;;;;;;0.60;0.60;;;-3.80;99.90;;;;;;5246054;28;20032;-72
2022/01/16 05:21:16;;;;;;;0.40;0.40;;;-3.70;99.90;;;;;;5262087;28;20095;-71
2022/01/16 05:23:53;;;;;;;0.40;0.40;;;-3.70;99.90;;;;;;5241150;28;20078;-71
2022/01/16 05:26:28;;;;;;;0.50;0.50;;;-3.80;99.90;;;;;;5261143;28;20028;-71
2022/01/16 05:29:02;;;;;;;0.60;0.60;;;-3.80;99.90;;;;;;5245535;28;20031;-72
2022/01/16 05:31:34;;;;;;;0.93;0.93;;;-3.70;99.90;;;;;;5225786;28;20091;-72
2022/01/16 05:34:05;;;;;;;0.80;0.80;;;-3.70;99.90;;;;;;5261508;28;20054;-72
2022/01/16 05:36:39;;;;;;;0.40;0.40;;;-3.70;99.90;;;;;;5244381;28;20091;-72
2022/01/16 05:39:11;;;;;;;0.77;0.77;;;-3.70;99.90;;;;;;5261138;28;20035;-71
2022/01/16 05:41:47;;;;;;;0.40;0.40;;;-3.80;99.90;;;;;;5273498;28;20399;-71
2022/01/16 05:44:18;;;;;;;0.60;0.60;;;-3.80;99.90;;;;;;5231874;28;20036;-71
2022/01/16 05:46:50;;;;;;;0.50;0.50;;;-3.80;99.90;;;;;;5242333;28;20031;-71
2022/01/16 05:49:24;;;;;;;0.67;0.67;;;-3.80;99.90;;;;;;5260156;28;20306;-72
2022/01/16 05:51:59;;;;;;;0.52;0.52;;;-3.80;99.90;;;;;;5240815;28;20103;-72
2022/01/16 05:54:35;;;;;;;0.73;0.73;;;-3.80;99.90;;;;;;5243616;28;20044;-71
2022/01/16 05:57:07;;;;;;;0.60;0.60;;;-3.90;99.90;;;;;;5260951;28;20028;-71
2022/01/16 05:59:44;;;;;;;0.40;0.40;;;-3.90;99.90;;;;;;5260983;28;20089;-71
2022/01/16 06:02:16;;;;;;;0.70;0.70;;;-3.90;99.90;;;;;;5261123;28;20043;-72
2022/01/16 06:04:50;;;;;;;0.47;0.47;;;-3.90;99.90;;;;;;5231237;28;20067;-71
2022/01/16 06:07:21;;;;;;;0.63;0.63;;;-3.90;99.90;;;;;;5250423;28;20031;-71
2022/01/16 06:09:54;;;;;;;0.60;0.60;;;-3.90;99.90;;;;;;5261584;28;20024;-71
2022/01/16 06:12:30;;;;;;;0.60;0.60;;;-4.00;99.90;;;;;;5242949;28;20459;-72
2022/01/16 06:15:05;;;;;;;0.57;0.57;;;-4.10;99.90;;;;;;5257843;28;20526;-72
2022/01/16 06:17:38;;;;;;;1.33;1.33;;;-4.10;99.90;;;;;;5260828;28;20370;-72
2022/01/16 06:20:14;;;;;;;0.75;0.75;;;-4.10;99.90;;;;;;5247505;28;20418;-73
2022/01/16 06:22:48;;;;;;;0.53;0.53;;;-4.20;99.90;;;;;;5259464;28;20381;-71
2022/01/16 06:25:23;;;;;;;0.60;0.60;;;-4.20;99.90;;;;;;5261537;28;20043;-71
2022/01/16 06:27:54;;;;;;;2.17;2.00;;;-4.20;99.90;;;;;;5273703;28;20110;-72
2022/01/16 06:30:25;;;;;;;0.40;0.40;;;-4.20;99.90;;;;;;5269370;28;20418;-72
2022/01/16 06:32:55;;;;;;;0.50;0.50;;;-4.10;99.90;;;;;;5258536;28;20085;-72
2022/01/16 06:35:26;;;;;;;0.63;0.63;;;-4.10;99.90;;;;;;5257856;28;20036;-72
2022/01/16 06:37:57;;;;;;;0.50;0.50;;;-4.10;99.90;;;;;;5238771;28;20438;-72
2022/01/16 06:40:28;;;;;;;0.80;0.80;;;-4.10;99.90;;;;;;5257625;28;20040;-72
2022/01/16 06:43:01;;;;;;;0.50;0.50;;;-4.20;99.90;;;;;;5247640;28;20027;-72
2022/01/16 06:45:32;;;;;;;2.87;2.73;;;-4.20;99.90;;;;;;5263332;28;20091;-72
2022/01/16 06:48:03;;;;;;;0.40;0.40;;;-4.20;99.90;;;;;;5244321;28;20093;-72
2022/01/16 06:50:37;;;;;;;0.70;0.70;;;-4.20;99.90;;;;;;5238991;28;20071;-72
2022/01/16 06:53:10;;;;;;;0.40;0.40;;;-4.20;99.90;;;;;;5278530;28;20511;-72
2022/01/16 06:55:41;;;;;;;1.07;1.07;;;-4.20;99.90;;;;;;5276250;27;20040;-72
2022/01/16 06:58:16;;;;;;;0.43;0.43;;;-4.10;99.90;;;;;;5263906;28;20473;-71
2022/01/16 07:00:47;;;;;;;0.57;0.57;;;-4.10;99.90;;;;;;5246831;28;20047;-72
2022/01/16 07:03:18;;;;;;;0.47;0.47;;;-4.10;99.90;;;;;;5279870;27;20555;-71
2022/01/16 07:05:49;;;;;;;1.70;1.60;;;-4.00;99.90;;;;;;5259561;28;20585;-73
2022/01/16 07:08:25;;;;;;;0.40;0.40;;;-3.90;99.90;;;;;;5261040;28;20032;-72
2022/01/16 07:10:57;;;;;;;0.50;0.50;;;-3.80;99.90;;;;;;5243182;28;20051;-71
2022/01/16 07:13:34;;;;;;;1.40;1.40;;;-3.70;99.90;;;;;;5228141;28;20027;-72
2022/01/16 07:16:05;;;;;;;0.40;0.40;;;-3.60;99.90;;;;;;5262378;28;20061;-72
2022/01/16 07:18:41;;;;;;;0.60;0.60;;;-3.50;99.90;;;;;;5254556;28;20040;-72
2022/01/16 07:21:14;;;;;;;1.07;1.07;;;-3.50;99.90;;;;;;5277799;28;20028;-73
2022/01/16 07:23:46;;;;;;;0.50;0.50;;;-3.50;99.90;;;;;;5263693;28;20020;-71
2022/01/16 07:26:20;;;;;;;0.90;0.90;;;-3.40;99.90;;;;;;5262526;28;20050;-72
2022/01/16 07:28:53;;;;;;;0.63;0.63;;;-3.30;99.90;;;;;;5259416;28;20047;-72
2022/01/16 07:31:24;;;;;;;2.77;1.67;;;-3.10;99.90;;;;;;5244347;28;20054;-73
2022/01/16 07:33:58;;;;;;;0.57;0.57;;;-3.00;99.90;;;;;;5270989;28;20253;-72
2022/01/16 07:36:29;;;;;;;0.80;0.80;;;-2.90;99.90;;;;;;5263140;28;20055;-72
2022/01/16 07:39:04;;;;;;;0.70;0.70;;;-2.80;99.90;;;;;;5251662;28;20024;-72
2022/01/16 07:41:35;;;;;;;0.63;0.63;;;-2.60;99.90;;;;;;5253303;28;20063;-72
2022/01/16 07:44:06;;;;;;;1.27;1.20;;;-2.60;99.90;;;;;;5229577;28;20050;-72
2022/01/16 07:46:40;;;;;;;1.50;1.40;;;-2.60;99.90;;;;;;5263352;28;20036;-72
2022/01/16 07:49:13;;;;;;;1.55;1.45;;;-2.60;99.90;;;;;;5249092;28;20041;-72
2022/01/16 07:51:47;;;;;;;0.60;0.60;;;-2.40;99.90;;;;;;5263996;28;20043;-72
2022/01/16 07:54:19;;;;;;;0.50;0.50;;;-2.30;99.90;;;;;;5260921;28;20036;-72
2022/01/16 07:56:49;;;;;;;1.40;1.37;;;-2.20;99.90;;;;;;5262428;28;20364;-72
2022/01/16 07:59:20;;;;;;;0.73;0.73;;;-2.00;99.90;;;;;;5261870;28;20082;-72
2022/01/16 08:01:51;;;;;;;0.70;0.70;;;-1.80;99.90;;;;;;5264765;28;20091;-72
2022/01/16 08:04:22;;;;;;;1.03;1.03;;;-1.50;99.90;;;;;;5235860;28;20059;-73
2022/01/16 08:06:53;;;;;;;0.40;0.40;;;-1.50;99.90;;;;;;5275090;28;20257;-72
2022/01/16 08:09:24;;;;;;;0.43;0.43;;;-1.50;99.90;;;;;;5261798;28;20047;-73
2022/01/16 08:11:55;;;;;;;0.50;0.50;;;-1.50;99.90;;;;;;5262255;28;20105;-72
2022/01/16 08:14:26;;;;;;;1.93;1.83;;;-1.50;99.90;;;;;;5263552;28;20046;-72
2022/01/16 08:17:04;;;;;;;0.70;0.70;;;-1.40;99.90;;;;;;5263614;28;20894;-73
2022/01/16 08:19:35;;;;;;;0.70;0.70;;;-1.30;99.90;;;;;;5277987;28;20543;-72
2022/01/16 08:22:05;;;;;;;1.33;1.33;;;-1.10;99.90;;;;;;5263856;28;20059;-72
2022/01/16 08:24:37;;;;;;;0.77;0.77;;;-1.00;99.90;;;;;;5262247;28;20551;-73
2022/01/16 08:27:07;;;;;;;0.60;0.60;;;-0.90;99.90;;;;;;5243933;28;20032;-71
2022/01/16 08:29:38;;;;;;;0.53;0.53;;;-0.80;99.90;;;;;;5262366;28;20659;-73
2022/01/16 08:32:14;;;;;;;0.63;0.63;;;-0.60;99.90;;;;;;5243734;28;20031;-72
2022/01/16 08:34:45;;;;;;;0.90;0.90;;;-0.40;99.90;;;;;;5258174;28;20032;-72
2022/01/16 08:37:16;;;;;;;1.23;1.13;;;-0.20;99.90;;;;;;5260681;28;20301;-73
2022/01/16 08:39:49;;;;;;;1.57;1.57;;;-0.10;99.90;;;;;;5227840;28;20047;-72
2022/01/16 08:42:20;;;;;;;1.63;1.53;;;0.20;99.90;;;;;;5241446;28;20051;-73
2022/01/16 08:44:52;;;;;;;0.60;0.60;;;0.60;99.90;;;;;;5259006;28;20319;-73
2022/01/16 08:47:23;;;;;;;0.70;0.70;;;1.00;99.90;;;;;;5259963;28;20226;-73
2022/01/16 08:49:54;;;;;;;1.45;1.38;;;0.90;99.90;;;;;;5245943;28;20093;-73
2022/01/16 08:52:28;;;;;;;0.70;0.70;;;1.10;99.90;;;;;;5253930;28;20509;-73
2022/01/16 08:55:02;;;;;;;0.88;0.88;;;1.30;99.90;;;;;;5261383;28;20040;-73
2022/01/16 08:57:33;;;;;;;1.83;1.73;;;1.50;99.90;;;;;;5260375;28;20046;-73
2022/01/16 09:00:07;;;;;;;0.52;0.52;;;1.70;99.90;;;;;;5245309;28;20123;-74
2022/01/16 09:02:38;;;;;;;1.52;1.45;;;1.80;99.90;;;;;;5237515;28;20393;-73
2022/01/16 09:05:09;;;;;;;0.95;0.95;;;1.80;99.90;;;;;;5255949;28;20131;-73
2022/01/16 09:07:43;;;;;;;0.82;0.82;;;2.00;99.90;;;;;;5262147;28;20274;-75
2022/01/16 09:10:19;;;;;;;0.50;0.50;;;2.20;99.90;;;;;;5276213;28;20046;-73
2022/01/16 09:12:50;;;;;;;1.75;1.20;;;2.40;99.90;;;;;;5242656;28;20047;-73
2022/01/16 09:15:23;;;;;;;1.83;1.73;;;2.50;99.90;;;;;;5260360;28;20040;-74
2022/01/16 09:18:03;;;;;;;0.60;0.60;;;2.60;99.90;;;;;;5261216;28;20083;-74
2022/01/16 09:20:36;;;;;;;0.75;0.75;;;2.80;99.90;;;;;;5260326;28;20036;-74
2022/01/16 09:23:10;;;;;;;0.60;0.60;;;2.80;99.90;;;;;;5260408;28;20040;-73
2022/01/16 09:25:41;;;;;;;0.98;0.98;;;3.20;99.90;;;;;;5224960;28;20106;-73
2022/01/16 09:28:18;;;;;;;1.00;1.00;;;3.20;99.90;;;;;;5274405;28;20567;-74
2022/01/16 09:30:49;;;;;;;0.50;0.50;;;3.40;99.90;;;;;;5220664;28;20423;-73
2022/01/16 09:33:19;;;;;;;0.60;0.60;;;3.40;99.90;;;;;;5259357;28;20047;-74
2022/01/16 09:35:54;;;;;;;1.15;1.15;;;3.40;99.90;;;;;;5240361;28;20067;-75
2022/01/16 09:38:25;;;;;;;1.15;1.15;;;3.60;99.90;;;;;;5217916;28;20146;-75
2022/01/16 09:40:57;;;;;;;0.47;0.47;;;3.50;99.90;;;;;;5282702;27;20031;-75
2022/01/16 09:43:28;;;;;;;0.77;0.77;;;3.70;99.90;;;;;;5242124;28;20369;-76
2022/01/16 09:46:03;;;;;;;1.88;1.77;;;3.20;99.90;;;;;;5241328;28;20090;-74
2022/01/16 09:48:34;;;;;;;1.60;1.50;;;2.90;99.90;;;;;;5240478;28;20534;-74
2022/01/16 09:51:06;;;;;;;0.85;0.77;;;2.60;99.90;;;;;;5275047;28;20028;-76
2022/01/16 09:53:41;;;;;;;1.92;1.83;;;2.90;99.90;;;;;;5241346;28;20531;-76
2022/01/16 09:56:13;;;;;;;0.70;0.70;;;3.10;99.90;;;;;;5241925;28;20035;-77
2022/01/16 09:58:44;;;;;;;0.77;0.77;;;3.40;99.90;;;;;;5264121;28;20407;-76
2022/01/16 10:01:15;;;;;;;0.60;0.60;;;4.00;99.90;;;;;;5260131;28;20417;-77
2022/01/16 10:03:50;;;;;;;1.92;1.83;;;4.20;99.90;;;;;;5241736;28;20102;-78
2022/01/16 10:06:28;;;;;;;1.88;1.77;;;4.50;99.90;;;;;;5253144;28;20071;-77
2022/01/16 10:09:18;;;;;;;0.80;0.80;;;4.90;99.90;;;;;;5245914;28;20032;-77
2022/01/16 10:12:02;;;;;;;1.25;1.25;;;3.80;99.90;;;;;;5260254;28;20562;-79
2022/01/16 10:14:37;;;;;;;3.60;3.30;;;3.70;99.90;;;;;;5248841;28;20020;-79
2022/01/16 10:17:23;;;;;;;0.73;0.73;;;4.20;99.90;;;;;;5233866;28;20056;-79
2022/01/16 10:20:24;;;;;;;0.77;0.77;;;4.90;99.90;;;;;;5252975;28;20016;-79
2022/01/16 10:23:01;;;;;;;0.75;0.75;;;5.70;99.90;;;;;;5263538;28;20067;-80
2022/01/16 10:25:44;;;;;;;0.70;0.70;;;5.80;99.90;;;;;;5285728;28;20054;-80
2022/01/16 10:28:28;;;;;;;1.13;1.13;;;5.70;99.90;;;;;;5252056;28;20064;-78
2022/01/16 10:31:04;;;;;;;1.15;1.15;;;5.90;99.90;;;;;;5268127;28;20016;-78
2022/01/16 10:33:35;;;;;;;1.05;1.05;;;5.70;99.90;;;;;;5265531;28;20028;-77
2022/01/16 10:36:10;;;;;;;1.65;1.55;;;6.10;99.90;;;;;;5250903;28;20038;-79
2022/01/16 10:39:03;;;;;;;1.77;1.67;;;7.30;99.90;;;;;;5269250;28;20032;-77
2022/01/16 10:41:34;;;;;;;0.90;0.90;;;7.50;99.90;;;;;;5254389;28;20095;-79
2022/01/16 10:44:29;;;;;;;0.70;0.70;;;7.30;99.90;;;;;;5265793;28;20375;-78
2022/01/16 10:47:39;;;;;;;0.80;0.80;;;8.10;99.90;;;;;;5264586;28;20078;-76
2022/01/16 10:50:25;;;;;;;0.85;0.85;;;8.90;99.90;;;;;;5259291;28;20629;-76
2022/01/16 10:53:06;;;;;;;1.27;1.27;;;8.30;99.90;;;;;;5259991;28;20404;-75
2022/01/16 10:55:45;;;;;;;1.60;1.60;;;8.30;99.90;;;;;;5236436;28;20028;-75
2022/01/16 10:58:40;;;;;;;1.27;1.25;;;8.50;99.90;;;;;;5250402;28;20032;-76
2022/01/16 11:01:19;;;;;;;1.05;1.05;;;9.30;99.90;;;;;;5255946;28;20253;-74
2022/01/16 11:03:58;;;;;;;1.20;1.20;;;8.20;99.90;;;;;;5263009;28;20086;-75
2022/01/16 11:06:32;;;;;;;1.98;1.83;;;9.00;99.90;;;;;;5257600;27;20077;-75
2022/01/16 11:09:04;;;;;;;1.20;1.20;;;8.50;99.90;;;;;;5235553;28;20273;-75
2022/01/16 11:11:34;;;;;;;0.90;0.90;;;9.20;99.90;;;;;;5247773;28;20603;-75
2022/01/16 11:14:08;;;;;;;1.00;1.00;;;9.30;99.90;;;;;;5245349;28;20052;-76
2022/01/16 11:16:44;;;;;;;2.17;2.07;;;9.10;99.90;;;;;;5245200;28;20330;-75
2022/01/16 11:19:21;;;;;;;1.13;1.13;;;9.60;99.90;;;;;;5261508;28;20046;-77
2022/01/16 11:22:03;;;;;;;1.45;1.45;;;10.30;99.90;;;;;;5233767;28;20062;-75
2022/01/16 11:24:46;;;;;;;0.85;0.85;;;10.00;99.90;;;;;;5244184;28;20318;-76
2022/01/16 11:27:20;;;;;;;1.85;1.75;;;11.20;99.90;;;;;;5261693;28;20024;-76
2022/01/16 11:29:52;;;;;;;2.05;1.95;;;11.30;99.90;;;;;;5257991;28;20062;-75
2022/01/16 11:32:26;;;;;;;1.02;1.02;;;10.60;99.90;;;;;;5242804;28;20089;-76
2022/01/16 11:35:01;;;;;;;1.15;1.15;;;9.70;99.90;;;;;;5264905;28;20028;-76
2022/01/16 11:37:32;;;;;;;2.67;2.47;;;9.00;99.90;;;;;;5253756;28;20037;-77
2022/01/16 11:40:44;;;;;;;2.30;2.17;;;8.20;99.90;;;;;;5277362;28;20095;-75
2022/01/16 11:43:37;;;;;;;1.42;1.33;;;8.70;99.90;;;;;;5255021;28;20051;-74
2022/01/16 11:46:23;;;;;;;0.80;0.80;;;9.40;99.90;;;;;;5246190;28;20114;-73
2022/01/16 11:49:08;;;;;;;2.08;1.98;;;10.70;99.90;;;;;;5243620;28;20044;-74
2022/01/16 11:51:51;;;;;;;2.13;2.03;;;11.60;99.90;;;;;;5231483;28;20031;-77
2022/01/16 11:54:26;;;;;;;2.47;2.38;;;11.60;99.90;;;;;;5255886;28;20035;-74
2022/01/16 11:57:19;;;;;;;1.50;1.50;;;11.30;99.90;;;;;;5261023;28;20039;-74
2022/01/16 11:59:58;;;;;;;0.98;0.98;;;12.20;99.90;;;;;;5262420;28;20103;-75
2022/01/16 12:02:36;;;;;;;1.35;1.25;;;13.50;99.90;;;;;;5255673;28;20023;-77
2022/01/16 12:05:10;;;;;;;1.52;1.52;;;13.10;99.90;;;;;;5240681;28;20055;-76
2022/01/16 12:07:47;;;;;;;1.93;1.83;;;13.60;99.90;;;;;;5274717;28;20031;-77
2022/01/16 12:10:45;;;;;;;1.73;1.67;;;14.10;99.90;;;;;;5247722;28;20272;-75
2022/01/16 12:13:52;;;;;;;0.93;0.93;;;12.90;99.90;;;;;;5278787;27;20036;-76
2022/01/16 12:16:33;;;;;;;1.25;1.25;;;11.60;99.90;;;;;;5228441;28;20032;-75
2022/01/16 12:19:41;;;;;;;1.30;1.30;;;13.20;99.90;;;;;;5262625;28;20028;-75
2022/01/16 12:22:40;;;;;;;1.85;1.75;;;14.10;99.90;;;;;;5241832;28;20548;-75
2022/01/16 12:25:47;;;;;;;1.88;1.77;;;15.10;99.90;;;;;;5263963;28;20031;-74
2022/01/16 12:28:23;;;;;;;1.30;1.30;;;14.70;99.90;;;;;;5259280;28;20031;-75
2022/01/16 12:31:08;;;;;;;1.95;1.85;;;13.40;99.90;;;;;;5260158;28;20031;-74
2022/01/16 12:33:50;;;;;;;1.95;1.85;;;13.00;99.90;;;;;;5267929;28;20035;-75
2022/01/16 12:36:35;;;;;;;1.83;1.75;;;14.00;99.90;;;;;;5246878;28;20036;-77
2022/01/16 12:39:10;;;;;;;1.45;1.40;;;14.90;99.90;;;;;;5277061;28;20055;-75
2022/01/16 12:41:46;;;;;;;1.48;1.38;;;14.80;99.90;;;;;;5250923;28;20047;-76
2022/01/16 12:44:19;;;;;;;1.48;1.38;;;13.70;99.90;;;;;;5242958;28;20052;-75
2022/01/16 12:46:54;;;;;;;1.80;1.70;;;13.30;99.90;;;;;;5243630;28;20030;-77
2022/01/16 12:49:26;;;;;;;0.80;0.80;;;12.80;99.90;;;;;;5266162;28;20043;-76
2022/01/16 12:52:01;;;;;;;1.23;1.23;;;12.90;99.90;;;;;;5260852;28;20040;-75
2022/01/16 12:54:34;;;;;;;;;;;13.70;99.90;;;;;;5243544;28;20040;-75
2022/01/16 12:57:08;;;;;;;0.93;0.93;;;13.00;99.90;;;;;;5259904;28;19920;-75
2022/01/16 12:59:41;;;;;;;3.40;3.20;;;13.70;99.90;;;;;;5226662;28;20046;-74
2022/01/16 13:02:12;;;;;;;1.63;1.52;;;13.40;99.90;;;;;;5259313;28;20098;-75
2022/01/16 13:04:49;;;;;;;0.82;0.82;;;13.00;99.90;;;;;;5262729;28;20055;-75
2022/01/16 13:07:20;;;;;;;1.35;1.35;;;11.40;99.90;;;;;;5265072;28;20032;-76
2022/01/16 13:09:51;;;;;;;2.13;1.25;;;11.10;99.90;;;;;;5241978;28;20028;-75
2022/01/16 13:12:22;;;;;;;0.90;0.90;;;10.80;99.90;;;;;;5242638;28;20440;-75
2022/01/16 13:14:58;;;;;;;2.00;1.90;;;11.10;99.90;;;;;;5255394;28;20059;-76
2022/01/16 13:17:35;;;;;;;2.22;2.13;;;11.50;99.90;;;;;;5246494;28;20032;-77
2022/01/16 13:20:14;;;;;;;3.22;1.75;;;11.70;99.90;;;;;;5253661;28;20406;-75
2022/01/16 13:22:45;;;;;;;1.38;1.38;;;11.90;99.90;;;;;;5243729;28;20032;-76
2022/01/16 13:25:19;;;;;;;2.05;1.95;;;11.70;99.90;;;;;;5258837;28;20050;-75
2022/01/16 13:27:50;;;;;;;1.90;1.75;;;12.10;99.90;;;;;;5243353;28;20042;-75
2022/01/16 13:30:27;;;;;;;1.10;1.10;;;11.40;99.90;;;;;;5245459;28;20039;-75
2022/01/16 13:33:05;;;;;;;1.33;1.33;;;9.60;99.90;;;;;;5228764;28;20051;-75
2022/01/16 13:35:38;;;;;;;0.85;0.85;;;7.70;99.90;;;;;;5243622;28;20353;-74
2022/01/16 13:38:11;;;;;;;0.70;0.70;;;7.40;99.90;;;;;;5241866;28;20482;-74
2022/01/16 13:40:47;;;;;;;0.90;0.90;;;8.00;99.90;;;;;;5242869;28;20039;-75
2022/01/16 13:43:19;;;;;;;1.48;1.48;;;8.50;99.90;;;;;;5271806;28;20024;-75
2022/01/16 13:45:50;;;;;;;0.80;0.80;;;8.30;99.90;;;;;;5258732;28;20032;-75
2022/01/16 13:48:29;;;;;;;1.67;1.65;;;8.40;99.90;;;;;;5259538;28;20039;-74
2022/01/16 13:51:03;;;;;;;1.10;1.10;;;8.50;99.90;;;;;;5253323;28;20024;-76
2022/01/16 13:53:38;;;;;;;1.17;1.17;;;9.10;99.90;;;;;;5253158;28;20051;-76
2022/01/16 13:56:16;;;;;;;1.48;1.48;;;9.20;99.90;;;;;;5242253;28;20036;-77
2022/01/16 13:58:54;;;;;;;1.23;1.17;;;8.90;99.90;;;;;;5268875;28;20036;-77
2022/01/16 14:01:29;;;;;;;1.00;1.00;;;8.30;99.90;;;;;;5260796;28;20047;-76
2022/01/16 14:04:01;;;;;;;;;;;8.40;99.90;;;;;;5224207;28;20047;-77
2022/01/16 14:06:56;;;;;;;1.10;1.10;;;8.70;99.90;;;;;;5263481;28;19916;-77
2022/01/16 14:09:33;;;;;;;0.90;0.90;;;8.50;99.90;;;;;;5276614;28;20034;-77
2022/01/16 14:12:09;;;;;;;1.13;1.13;;;8.70;99.90;;;;;;5243461;28;20354;-75